sensor_id;sensor_type;location;lat;lon;timestamp;P1;durP1;ratioP1;P2;durP2;ratioP2
56173;SDS011;42058;52.308;20.924;2022-12-18T00:01:04;47.83;;;20.30;;
56173;SDS011;42058;52.308;20.924;2022-12-18T00:03:36;46.90;;;18.85;;
56173;SDS011;42058;52.308;20.924;2022-12-18T00:06:02;44.73;;;17.92;;
56173;SDS011;42058;52.308;20.924;2022-12-18T00:08:28;45.78;;;18.82;;
56173;SDS011;42058;52.308;20.924;2022-12-18T00:10:54;48.35;;;18.37;;
56173;SDS011;42058;52.308;20.924;2022-12-18T00:13:20;48.50;;;19.35;;
56173;SDS011;42058;52.308;20.924;2022-12-18T00:15:47;47.23;;;19.12;;
56173;SDS011;42058;52.308;20.924;2022-12-18T00:18:13;47.90;;;18.60;;
56173;SDS011;42058;52.308;20.924;2022-12-18T00:20:39;47.08;;;19.23;;
56173;SDS011;42058;52.308;20.924;2022-12-18T00:23:06;44.15;;;19.42;;
56173;SDS011;42058;52.308;20.924;2022-12-18T00:25:37;50.80;;;20.37;;
56173;SDS011;42058;52.308;20.924;2022-12-18T00:28:02;45.55;;;19.87;;
56173;SDS011;42058;52.308;20.924;2022-12-18T00:30:29;45.55;;;19.00;;
56173;SDS011;42058;52.308;20.924;2022-12-18T00:32:56;43.80;;;17.07;;
56173;SDS011;42058;52.308;20.924;2022-12-18T00:35:24;47.15;;;18.70;;
56173;SDS011;42058;52.308;20.924;2022-12-18T00:37:51;45.15;;;18.37;;
56173;SDS011;42058;52.308;20.924;2022-12-18T00:40:17;45.80;;;17.92;;
56173;SDS011;42058;52.308;20.924;2022-12-18T00:42:43;39.90;;;18.00;;
56173;SDS011;42058;52.308;20.924;2022-12-18T00:45:25;41.05;;;16.87;;
56173;SDS011;42058;52.308;20.924;2022-12-18T00:47:54;45.80;;;17.57;;
56173;SDS011;42058;52.308;20.924;2022-12-18T00:50:22;46.80;;;18.17;;
56173;SDS011;42058;52.308;20.924;2022-12-18T00:52:50;39.33;;;16.62;;
56173;SDS011;42058;52.308;20.924;2022-12-18T00:55:16;41.90;;;17.32;;
56173;SDS011;42058;52.308;20.924;2022-12-18T00:57:43;41.85;;;17.45;;
56173;SDS011;42058;52.308;20.924;2022-12-18T01:00:12;38.35;;;16.25;;
56173;SDS011;42058;52.308;20.924;2022-12-18T01:02:40;37.70;;;16.20;;
56173;SDS011;42058;52.308;20.924;2022-12-18T01:05:08;42.33;;;16.75;;
56173;SDS011;42058;52.308;20.924;2022-12-18T01:07:37;39.78;;;18.12;;
56173;SDS011;42058;52.308;20.924;2022-12-18T01:10:04;42.50;;;16.50;;
56173;SDS011;42058;52.308;20.924;2022-12-18T01:12:34;36.77;;;15.90;;
56173;SDS011;42058;52.308;20.924;2022-12-18T01:15:01;39.83;;;16.35;;
56173;SDS011;42058;52.308;20.924;2022-12-18T01:17:29;43.65;;;17.05;;
56173;SDS011;42058;52.308;20.924;2022-12-18T01:19:55;41.55;;;16.95;;
56173;SDS011;42058;52.308;20.924;2022-12-18T01:22:21;40.08;;;16.17;;
56173;SDS011;42058;52.308;20.924;2022-12-18T01:24:47;44.30;;;17.75;;
56173;SDS011;42058;52.308;20.924;2022-12-18T01:27:13;43.40;;;17.10;;
56173;SDS011;42058;52.308;20.924;2022-12-18T01:29:39;41.55;;;17.07;;
56173;SDS011;42058;52.308;20.924;2022-12-18T01:32:05;39.58;;;15.60;;
56173;SDS011;42058;52.308;20.924;2022-12-18T01:34:32;41.15;;;17.05;;
56173;SDS011;42058;52.308;20.924;2022-12-18T01:36:58;41.85;;;16.37;;
56173;SDS011;42058;52.308;20.924;2022-12-18T01:39:24;39.13;;;15.53;;
56173;SDS011;42058;52.308;20.924;2022-12-18T01:41:50;34.65;;;15.75;;
56173;SDS011;42058;52.308;20.924;2022-12-18T01:47:29;40.78;;;16.12;;
56173;SDS011;42058;52.308;20.924;2022-12-18T01:53:07;41.65;;;15.88;;
56173;SDS011;42058;52.308;20.924;2022-12-18T01:55:40;43.10;;;15.80;;
56173;SDS011;42058;52.308;20.924;2022-12-18T01:58:23;32.93;;;14.38;;
56173;SDS011;42058;52.308;20.924;2022-12-18T02:01:03;40.65;;;15.28;;
56173;SDS011;42058;52.308;20.924;2022-12-18T02:03:31;36.50;;;14.75;;
56173;SDS011;42058;52.308;20.924;2022-12-18T02:06:13;36.63;;;14.43;;
56173;SDS011;42058;52.308;20.924;2022-12-18T02:14:45;32.80;;;14.03;;
56173;SDS011;42058;52.308;20.924;2022-12-18T02:17:37;30.95;;;11.93;;
56173;SDS011;42058;52.308;20.924;2022-12-18T02:20:13;34.25;;;13.90;;
56173;SDS011;42058;52.308;20.924;2022-12-18T02:22:46;33.28;;;13.25;;
56173;SDS011;42058;52.308;20.924;2022-12-18T02:25:38;39.30;;;14.10;;
56173;SDS011;42058;52.308;20.924;2022-12-18T02:28:34;31.73;;;13.20;;
56173;SDS011;42058;52.308;20.924;2022-12-18T02:31:05;31.52;;;12.35;;
56173;SDS011;42058;52.308;20.924;2022-12-18T02:33:36;36.15;;;13.43;;
56173;SDS011;42058;52.308;20.924;2022-12-18T02:36:04;35.68;;;12.43;;
56173;SDS011;42058;52.308;20.924;2022-12-18T02:38:32;31.87;;;12.40;;
56173;SDS011;42058;52.308;20.924;2022-12-18T02:41:02;35.17;;;12.70;;
56173;SDS011;42058;52.308;20.924;2022-12-18T02:43:30;33.88;;;14.25;;
56173;SDS011;42058;52.308;20.924;2022-12-18T02:45:57;35.30;;;13.13;;
56173;SDS011;42058;52.308;20.924;2022-12-18T02:48:30;30.40;;;12.88;;
56173;SDS011;42058;52.308;20.924;2022-12-18T02:51:00;41.25;;;14.65;;
56173;SDS011;42058;52.308;20.924;2022-12-18T02:53:49;38.13;;;13.83;;
56173;SDS011;42058;52.308;20.924;2022-12-18T02:56:35;36.38;;;13.03;;
56173;SDS011;42058;52.308;20.924;2022-12-18T02:59:15;36.10;;;14.30;;
56173;SDS011;42058;52.308;20.924;2022-12-18T03:05:04;34.75;;;13.60;;
56173;SDS011;42058;52.308;20.924;2022-12-18T03:07:41;29.95;;;13.00;;
56173;SDS011;42058;52.308;20.924;2022-12-18T03:10:18;31.45;;;13.03;;
56173;SDS011;42058;52.308;20.924;2022-12-18T03:12:52;32.00;;;12.47;;
56173;SDS011;42058;52.308;20.924;2022-12-18T03:15:28;27.22;;;12.35;;
56173;SDS011;42058;52.308;20.924;2022-12-18T03:18:04;29.90;;;11.80;;
56173;SDS011;42058;52.308;20.924;2022-12-18T03:20:34;26.25;;;10.93;;
56173;SDS011;42058;52.308;20.924;2022-12-18T03:23:04;27.98;;;11.35;;
56173;SDS011;42058;52.308;20.924;2022-12-18T03:25:38;26.17;;;11.63;;
56173;SDS011;42058;52.308;20.924;2022-12-18T03:28:07;31.68;;;10.98;;
56173;SDS011;42058;52.308;20.924;2022-12-18T03:30:42;27.37;;;10.70;;
56173;SDS011;42058;52.308;20.924;2022-12-18T03:33:13;28.07;;;11.60;;
56173;SDS011;42058;52.308;20.924;2022-12-18T03:36:03;27.25;;;11.40;;
56173;SDS011;42058;52.308;20.924;2022-12-18T03:38:29;30.45;;;12.75;;
56173;SDS011;42058;52.308;20.924;2022-12-18T03:46:36;28.05;;;12.10;;
56173;SDS011;42058;52.308;20.924;2022-12-18T03:49:27;27.55;;;11.75;;
56173;SDS011;42058;52.308;20.924;2022-12-18T03:52:25;34.78;;;12.70;;
56173;SDS011;42058;52.308;20.924;2022-12-18T03:55:00;26.62;;;12.60;;
56173;SDS011;42058;52.308;20.924;2022-12-18T03:57:30;32.15;;;12.10;;
56173;SDS011;42058;52.308;20.924;2022-12-18T04:00:09;32.98;;;12.05;;
56173;SDS011;42058;52.308;20.924;2022-12-18T04:02:56;25.95;;;11.70;;
56173;SDS011;42058;52.308;20.924;2022-12-18T04:05:27;22.17;;;10.95;;
56173;SDS011;42058;52.308;20.924;2022-12-18T04:07:56;31.85;;;11.83;;
56173;SDS011;42058;52.308;20.924;2022-12-18T04:10:24;27.75;;;11.78;;
56173;SDS011;42058;52.308;20.924;2022-12-18T04:12:50;29.42;;;11.12;;
56173;SDS011;42058;52.308;20.924;2022-12-18T04:15:23;27.00;;;11.45;;
56173;SDS011;42058;52.308;20.924;2022-12-18T04:17:50;28.45;;;11.93;;
56173;SDS011;42058;52.308;20.924;2022-12-18T04:20:18;31.62;;;11.50;;
56173;SDS011;42058;52.308;20.924;2022-12-18T04:22:44;31.12;;;11.45;;
56173;SDS011;42058;52.308;20.924;2022-12-18T04:25:10;28.30;;;11.65;;
56173;SDS011;42058;52.308;20.924;2022-12-18T04:27:38;29.70;;;11.73;;
56173;SDS011;42058;52.308;20.924;2022-12-18T04:30:05;28.55;;;11.45;;
56173;SDS011;42058;52.308;20.924;2022-12-18T04:32:33;25.57;;;11.38;;
56173;SDS011;42058;52.308;20.924;2022-12-18T04:35:00;33.13;;;12.05;;
56173;SDS011;42058;52.308;20.924;2022-12-18T04:37:26;30.60;;;11.50;;
56173;SDS011;42058;52.308;20.924;2022-12-18T04:39:52;31.62;;;12.45;;
56173;SDS011;42058;52.308;20.924;2022-12-18T04:42:20;30.23;;;11.50;;
56173;SDS011;42058;52.308;20.924;2022-12-18T04:44:46;29.65;;;11.95;;
56173;SDS011;42058;52.308;20.924;2022-12-18T04:47:12;29.15;;;11.55;;
56173;SDS011;42058;52.308;20.924;2022-12-18T04:49:38;26.95;;;11.38;;
56173;SDS011;42058;52.308;20.924;2022-12-18T04:52:04;31.35;;;12.10;;
56173;SDS011;42058;52.308;20.924;2022-12-18T04:54:33;29.52;;;12.37;;
56173;SDS011;42058;52.308;20.924;2022-12-18T04:56:59;32.53;;;12.75;;
56173;SDS011;42058;52.308;20.924;2022-12-18T04:59:25;29.60;;;12.05;;
56173;SDS011;42058;52.308;20.924;2022-12-18T05:01:51;33.33;;;12.15;;
56173;SDS011;42058;52.308;20.924;2022-12-18T05:04:19;31.37;;;12.45;;
56173;SDS011;42058;52.308;20.924;2022-12-18T05:06:45;30.08;;;11.68;;
56173;SDS011;42058;52.308;20.924;2022-12-18T05:09:11;26.23;;;11.12;;
56173;SDS011;42058;52.308;20.924;2022-12-18T05:11:37;30.15;;;11.68;;
56173;SDS011;42058;52.308;20.924;2022-12-18T05:14:03;33.70;;;12.25;;
56173;SDS011;42058;52.308;20.924;2022-12-18T05:16:29;36.35;;;14.05;;
56173;SDS011;42058;52.308;20.924;2022-12-18T05:18:55;33.75;;;13.08;;
56173;SDS011;42058;52.308;20.924;2022-12-18T05:21:22;30.27;;;12.45;;
56173;SDS011;42058;52.308;20.924;2022-12-18T05:23:48;34.08;;;13.70;;
56173;SDS011;42058;52.308;20.924;2022-12-18T05:26:15;34.27;;;13.60;;
56173;SDS011;42058;52.308;20.924;2022-12-18T05:28:43;31.75;;;13.72;;
56173;SDS011;42058;52.308;20.924;2022-12-18T05:31:09;34.03;;;13.83;;
56173;SDS011;42058;52.308;20.924;2022-12-18T05:33:35;32.55;;;13.85;;
56173;SDS011;42058;52.308;20.924;2022-12-18T05:36:02;34.05;;;13.40;;
56173;SDS011;42058;52.308;20.924;2022-12-18T05:38:31;30.82;;;12.58;;
56173;SDS011;42058;52.308;20.924;2022-12-18T05:40:59;35.10;;;13.80;;
56173;SDS011;42058;52.308;20.924;2022-12-18T05:43:26;36.45;;;13.98;;
56173;SDS011;42058;52.308;20.924;2022-12-18T05:45:53;35.05;;;13.15;;
56173;SDS011;42058;52.308;20.924;2022-12-18T05:48:20;36.25;;;14.15;;
56173;SDS011;42058;52.308;20.924;2022-12-18T05:50:47;35.45;;;13.28;;
56173;SDS011;42058;52.308;20.924;2022-12-18T05:53:16;43.02;;;14.75;;
56173;SDS011;42058;52.308;20.924;2022-12-18T05:55:44;39.98;;;14.45;;
56173;SDS011;42058;52.308;20.924;2022-12-18T05:58:12;44.60;;;15.35;;
56173;SDS011;42058;52.308;20.924;2022-12-18T06:00:42;42.73;;;15.70;;
56173;SDS011;42058;52.308;20.924;2022-12-18T06:03:10;48.35;;;15.85;;
56173;SDS011;42058;52.308;20.924;2022-12-18T06:05:38;46.20;;;17.05;;
56173;SDS011;42058;52.308;20.924;2022-12-18T06:08:07;52.00;;;17.10;;
56173;SDS011;42058;52.308;20.924;2022-12-18T06:10:34;55.20;;;17.80;;
56173;SDS011;42058;52.308;20.924;2022-12-18T06:13:00;49.50;;;17.17;;
56173;SDS011;42058;52.308;20.924;2022-12-18T06:15:27;58.65;;;19.75;;
56173;SDS011;42058;52.308;20.924;2022-12-18T06:17:53;51.02;;;18.25;;
56173;SDS011;42058;52.308;20.924;2022-12-18T06:20:19;50.58;;;18.87;;
56173;SDS011;42058;52.308;20.924;2022-12-18T06:22:46;52.98;;;19.60;;
56173;SDS011;42058;52.308;20.924;2022-12-18T06:25:12;57.65;;;19.87;;
56173;SDS011;42058;52.308;20.924;2022-12-18T06:27:38;53.00;;;20.17;;
56173;SDS011;42058;52.308;20.924;2022-12-18T06:30:05;63.15;;;20.65;;
56173;SDS011;42058;52.308;20.924;2022-12-18T06:32:33;60.95;;;20.70;;
56173;SDS011;42058;52.308;20.924;2022-12-18T06:34:59;61.68;;;20.77;;
56173;SDS011;42058;52.308;20.924;2022-12-18T06:37:26;63.78;;;20.52;;
56173;SDS011;42058;52.308;20.924;2022-12-18T06:39:52;72.58;;;23.77;;
56173;SDS011;42058;52.308;20.924;2022-12-18T06:42:19;60.78;;;20.52;;
56173;SDS011;42058;52.308;20.924;2022-12-18T06:44:45;66.10;;;21.20;;
56173;SDS011;42058;52.308;20.924;2022-12-18T06:47:11;68.02;;;21.00;;
56173;SDS011;42058;52.308;20.924;2022-12-18T06:49:37;69.42;;;21.55;;
56173;SDS011;42058;52.308;20.924;2022-12-18T06:52:03;71.53;;;21.25;;
56173;SDS011;42058;52.308;20.924;2022-12-18T06:54:29;67.37;;;22.60;;
56173;SDS011;42058;52.308;20.924;2022-12-18T06:56:55;64.07;;;22.45;;
56173;SDS011;42058;52.308;20.924;2022-12-18T06:59:21;65.40;;;19.95;;
56173;SDS011;42058;52.308;20.924;2022-12-18T07:01:47;65.35;;;21.07;;
56173;SDS011;42058;52.308;20.924;2022-12-18T07:04:13;62.70;;;20.32;;
56173;SDS011;42058;52.308;20.924;2022-12-18T07:06:39;68.85;;;20.72;;
56173;SDS011;42058;52.308;20.924;2022-12-18T07:09:05;69.97;;;22.67;;
56173;SDS011;42058;52.308;20.924;2022-12-18T07:11:32;68.30;;;21.55;;
56173;SDS011;42058;52.308;20.924;2022-12-18T07:13:59;65.50;;;20.10;;
56173;SDS011;42058;52.308;20.924;2022-12-18T07:16:25;63.65;;;20.32;;
56173;SDS011;42058;52.308;20.924;2022-12-18T07:18:58;64.32;;;21.37;;
56173;SDS011;42058;52.308;20.924;2022-12-18T07:21:22;68.25;;;20.82;;
56173;SDS011;42058;52.308;20.924;2022-12-18T07:23:50;66.62;;;20.32;;
56173;SDS011;42058;52.308;20.924;2022-12-18T07:26:18;61.60;;;20.82;;
56173;SDS011;42058;52.308;20.924;2022-12-18T07:28:47;65.42;;;20.00;;
56173;SDS011;42058;52.308;20.924;2022-12-18T07:31:15;68.12;;;21.45;;
56173;SDS011;42058;52.308;20.924;2022-12-18T07:33:44;68.60;;;21.57;;
56173;SDS011;42058;52.308;20.924;2022-12-18T07:36:11;66.33;;;22.02;;
56173;SDS011;42058;52.308;20.924;2022-12-18T07:38:39;62.83;;;20.77;;
56173;SDS011;42058;52.308;20.924;2022-12-18T07:41:09;59.70;;;19.20;;
56173;SDS011;42058;52.308;20.924;2022-12-18T07:43:38;67.65;;;20.82;;
56173;SDS011;42058;52.308;20.924;2022-12-18T07:46:06;57.80;;;20.85;;
56173;SDS011;42058;52.308;20.924;2022-12-18T07:48:33;57.83;;;18.90;;
56173;SDS011;42058;52.308;20.924;2022-12-18T07:51:00;65.35;;;20.72;;
56173;SDS011;42058;52.308;20.924;2022-12-18T07:53:28;59.35;;;19.25;;
56173;SDS011;42058;52.308;20.924;2022-12-18T07:55:55;56.48;;;17.87;;
56173;SDS011;42058;52.308;20.924;2022-12-18T07:58:25;66.62;;;19.17;;
56173;SDS011;42058;52.308;20.924;2022-12-18T08:00:52;61.45;;;20.77;;
56173;SDS011;42058;52.308;20.924;2022-12-18T08:03:18;58.08;;;20.48;;
56173;SDS011;42058;52.308;20.924;2022-12-18T08:05:45;56.53;;;19.07;;
56173;SDS011;42058;52.308;20.924;2022-12-18T08:08:11;60.50;;;18.98;;
56173;SDS011;42058;52.308;20.924;2022-12-18T08:10:37;66.22;;;19.73;;
56173;SDS011;42058;52.308;20.924;2022-12-18T08:13:04;66.35;;;19.87;;
56173;SDS011;42058;52.308;20.924;2022-12-18T08:15:30;61.10;;;20.15;;
56173;SDS011;42058;52.308;20.924;2022-12-18T08:17:56;66.17;;;21.45;;
56173;SDS011;42058;52.308;20.924;2022-12-18T08:20:22;61.40;;;19.70;;
56173;SDS011;42058;52.308;20.924;2022-12-18T08:22:48;67.67;;;20.17;;
56173;SDS011;42058;52.308;20.924;2022-12-18T08:25:15;62.70;;;19.75;;
56173;SDS011;42058;52.308;20.924;2022-12-18T08:27:41;60.92;;;20.35;;
56173;SDS011;42058;52.308;20.924;2022-12-18T08:30:07;66.77;;;19.32;;
56173;SDS011;42058;52.308;20.924;2022-12-18T08:32:36;59.77;;;18.42;;
56173;SDS011;42058;52.308;20.924;2022-12-18T08:35:02;55.63;;;19.42;;
56173;SDS011;42058;52.308;20.924;2022-12-18T08:37:28;50.92;;;17.67;;
56173;SDS011;42058;52.308;20.924;2022-12-18T08:39:54;61.80;;;18.92;;
56173;SDS011;42058;52.308;20.924;2022-12-18T08:42:20;51.35;;;17.75;;
56173;SDS011;42058;52.308;20.924;2022-12-18T08:45:05;56.73;;;18.30;;
56173;SDS011;42058;52.308;20.924;2022-12-18T08:47:33;53.80;;;18.45;;
56173;SDS011;42058;52.308;20.924;2022-12-18T08:49:59;48.28;;;18.73;;
56173;SDS011;42058;52.308;20.924;2022-12-18T08:52:25;52.93;;;18.75;;
56173;SDS011;42058;52.308;20.924;2022-12-18T08:54:51;57.33;;;18.02;;
56173;SDS011;42058;52.308;20.924;2022-12-18T08:57:17;53.80;;;18.05;;
56173;SDS011;42058;52.308;20.924;2022-12-18T08:59:43;56.35;;;18.37;;
56173;SDS011;42058;52.308;20.924;2022-12-18T09:02:10;57.43;;;18.32;;
56173;SDS011;42058;52.308;20.924;2022-12-18T09:04:37;55.08;;;18.25;;
56173;SDS011;42058;52.308;20.924;2022-12-18T09:07:05;56.23;;;18.50;;
56173;SDS011;42058;52.308;20.924;2022-12-18T09:09:31;53.63;;;17.80;;
56173;SDS011;42058;52.308;20.924;2022-12-18T09:11:58;53.63;;;19.62;;
56173;SDS011;42058;52.308;20.924;2022-12-18T09:14:24;59.03;;;18.35;;
56173;SDS011;42058;52.308;20.924;2022-12-18T09:16:50;57.93;;;19.40;;
56173;SDS011;42058;52.308;20.924;2022-12-18T09:19:16;58.98;;;18.65;;
56173;SDS011;42058;52.308;20.924;2022-12-18T09:21:42;54.85;;;17.75;;
56173;SDS011;42058;52.308;20.924;2022-12-18T09:24:08;50.80;;;17.80;;
56173;SDS011;42058;52.308;20.924;2022-12-18T09:26:39;52.95;;;18.15;;
56173;SDS011;42058;52.308;20.924;2022-12-18T09:29:05;52.05;;;18.12;;
56173;SDS011;42058;52.308;20.924;2022-12-18T09:31:55;60.92;;;17.70;;
56173;SDS011;42058;52.308;20.924;2022-12-18T09:34:25;54.33;;;18.52;;
56173;SDS011;42058;52.308;20.924;2022-12-18T09:36:53;55.83;;;19.32;;
56173;SDS011;42058;52.308;20.924;2022-12-18T09:39:19;53.92;;;18.80;;
56173;SDS011;42058;52.308;20.924;2022-12-18T09:41:52;50.73;;;18.37;;
56173;SDS011;42058;52.308;20.924;2022-12-18T09:44:39;55.45;;;18.73;;
56173;SDS011;42058;52.308;20.924;2022-12-18T09:50:04;56.28;;;18.80;;
56173;SDS011;42058;52.308;20.924;2022-12-18T09:52:35;58.47;;;18.53;;
56173;SDS011;42058;52.308;20.924;2022-12-18T09:55:09;59.75;;;18.75;;
56173;SDS011;42058;52.308;20.924;2022-12-18T10:01:01;50.15;;;18.20;;
56173;SDS011;42058;52.308;20.924;2022-12-18T10:03:27;51.63;;;19.15;;
56173;SDS011;42058;52.308;20.924;2022-12-18T10:06:02;52.30;;;17.67;;
56173;SDS011;42058;52.308;20.924;2022-12-18T10:09:02;54.35;;;19.42;;
56173;SDS011;42058;52.308;20.924;2022-12-18T10:12:02;61.83;;;20.50;;
56173;SDS011;42058;52.308;20.924;2022-12-18T10:18:14;63.35;;;20.12;;
56173;SDS011;42058;52.308;20.924;2022-12-18T10:20:25;65.03;;;21.90;;
56173;SDS011;42058;52.308;20.924;2022-12-18T10:26:02;54.38;;;19.45;;
56173;SDS011;42058;52.308;20.924;2022-12-18T10:28:35;49.58;;;17.50;;
56173;SDS011;42058;52.308;20.924;2022-12-18T10:31:07;52.85;;;18.75;;
56173;SDS011;42058;52.308;20.924;2022-12-18T10:33:47;52.00;;;19.40;;
56173;SDS011;42058;52.308;20.924;2022-12-18T10:36:14;54.33;;;20.20;;
56173;SDS011;42058;52.308;20.924;2022-12-18T10:38:40;58.23;;;19.70;;
56173;SDS011;42058;52.308;20.924;2022-12-18T10:46:44;45.05;;;16.95;;
56173;SDS011;42058;52.308;20.924;2022-12-18T10:49:25;56.15;;;20.23;;
56173;SDS011;42058;52.308;20.924;2022-12-18T10:54:47;49.75;;;18.37;;
56173;SDS011;42058;52.308;20.924;2022-12-18T10:57:29;58.35;;;20.25;;
56173;SDS011;42058;52.308;20.924;2022-12-18T11:00:18;53.23;;;19.37;;
56173;SDS011;42058;52.308;20.924;2022-12-18T11:02:47;54.50;;;20.35;;
56173;SDS011;42058;52.308;20.924;2022-12-18T11:05:24;66.22;;;21.82;;
56173;SDS011;42058;52.308;20.924;2022-12-18T11:07:59;55.25;;;19.50;;
56173;SDS011;42058;52.308;20.924;2022-12-18T11:10:33;62.15;;;20.23;;
56173;SDS011;42058;52.308;20.924;2022-12-18T11:13:15;54.50;;;20.70;;
56173;SDS011;42058;52.308;20.924;2022-12-18T11:15:40;53.30;;;19.98;;
56173;SDS011;42058;52.308;20.924;2022-12-18T11:18:19;52.13;;;18.92;;
56173;SDS011;42058;52.308;20.924;2022-12-18T11:20:50;57.20;;;20.75;;
56173;SDS011;42058;52.308;20.924;2022-12-18T11:23:20;63.63;;;20.57;;
56173;SDS011;42058;52.308;20.924;2022-12-18T11:25:50;62.05;;;22.17;;
56173;SDS011;42058;52.308;20.924;2022-12-18T11:31:21;53.10;;;19.00;;
56173;SDS011;42058;52.308;20.924;2022-12-18T11:36:36;64.55;;;20.82;;
56173;SDS011;42058;52.308;20.924;2022-12-18T11:39:12;60.73;;;20.00;;
56173;SDS011;42058;52.308;20.924;2022-12-18T11:44:48;54.13;;;20.00;;
56173;SDS011;42058;52.308;20.924;2022-12-18T11:47:39;63.92;;;22.13;;
56173;SDS011;42058;52.308;20.924;2022-12-18T11:50:43;64.17;;;22.20;;
56173;SDS011;42058;52.308;20.924;2022-12-18T11:53:12;72.27;;;23.32;;
56173;SDS011;42058;52.308;20.924;2022-12-18T11:55:41;65.08;;;22.65;;
56173;SDS011;42058;52.308;20.924;2022-12-18T11:58:33;72.20;;;23.77;;
56173;SDS011;42058;52.308;20.924;2022-12-18T12:07:48;74.37;;;22.50;;
56173;SDS011;42058;52.308;20.924;2022-12-18T12:10:04;78.50;;;25.45;;
56173;SDS011;42058;52.308;20.924;2022-12-18T12:16:00;84.87;;;26.65;;
56173;SDS011;42058;52.308;20.924;2022-12-18T12:24:27;73.70;;;24.43;;
56173;SDS011;42058;52.308;20.924;2022-12-18T12:29:39;69.60;;;23.98;;
56173;SDS011;42058;52.308;20.924;2022-12-18T12:32:12;70.57;;;25.17;;
56173;SDS011;42058;52.308;20.924;2022-12-18T12:37:48;72.72;;;24.70;;
56173;SDS011;42058;52.308;20.924;2022-12-18T12:40:43;74.53;;;24.60;;
56173;SDS011;42058;52.308;20.924;2022-12-18T12:43:24;77.53;;;25.37;;
56173;SDS011;42058;52.308;20.924;2022-12-18T12:46:11;73.00;;;23.50;;
56173;SDS011;42058;52.308;20.924;2022-12-18T12:51:14;68.67;;;24.52;;
56173;SDS011;42058;52.308;20.924;2022-12-18T12:53:46;73.25;;;22.67;;
56173;SDS011;42058;52.308;20.924;2022-12-18T12:56:15;67.53;;;22.90;;
56173;SDS011;42058;52.308;20.924;2022-12-18T12:59:02;63.38;;;24.00;;
56173;SDS011;42058;52.308;20.924;2022-12-18T13:01:42;75.90;;;24.70;;
56173;SDS011;42058;52.308;20.924;2022-12-18T13:04:50;70.45;;;23.83;;
56173;SDS011;42058;52.308;20.924;2022-12-18T13:07:39;69.37;;;23.22;;
56173;SDS011;42058;52.308;20.924;2022-12-18T13:12:52;75.05;;;25.43;;
56173;SDS011;42058;52.308;20.924;2022-12-18T13:18:12;69.58;;;23.27;;
56173;SDS011;42058;52.308;20.924;2022-12-18T13:21:01;70.10;;;23.30;;
56173;SDS011;42058;52.308;20.924;2022-12-18T13:23:29;70.32;;;23.30;;
56173;SDS011;42058;52.308;20.924;2022-12-18T13:26:27;68.95;;;23.90;;
56173;SDS011;42058;52.308;20.924;2022-12-18T13:34:18;70.78;;;24.40;;
56173;SDS011;42058;52.308;20.924;2022-12-18T13:36:46;72.50;;;25.30;;
56173;SDS011;42058;52.308;20.924;2022-12-18T13:44:43;71.42;;;23.95;;
56173;SDS011;42058;52.308;20.924;2022-12-18T13:47:37;68.05;;;22.60;;
56173;SDS011;42058;52.308;20.924;2022-12-18T13:50:03;73.12;;;24.18;;
56173;SDS011;42058;52.308;20.924;2022-12-18T13:52:38;81.80;;;24.32;;
56173;SDS011;42058;52.308;20.924;2022-12-18T13:55:07;78.65;;;24.50;;
56173;SDS011;42058;52.308;20.924;2022-12-18T13:57:37;71.87;;;23.18;;
56173;SDS011;42058;52.308;20.924;2022-12-18T14:02:54;80.97;;;24.35;;
56173;SDS011;42058;52.308;20.924;2022-12-18T14:05:27;77.62;;;25.55;;
56173;SDS011;42058;52.308;20.924;2022-12-18T14:08:06;71.07;;;24.00;;
56173;SDS011;42058;52.308;20.924;2022-12-18T14:10:40;67.72;;;23.77;;
56173;SDS011;42058;52.308;20.924;2022-12-18T14:13:09;69.58;;;24.52;;
56173;SDS011;42058;52.308;20.924;2022-12-18T14:15:40;75.17;;;24.18;;
56173;SDS011;42058;52.308;20.924;2022-12-18T14:20:54;72.05;;;24.77;;
56173;SDS011;42058;52.308;20.924;2022-12-18T14:23:30;65.65;;;22.95;;
56173;SDS011;42058;52.308;20.924;2022-12-18T14:26:03;73.75;;;24.72;;
56173;SDS011;42058;52.308;20.924;2022-12-18T14:28:48;61.28;;;23.07;;
56173;SDS011;42058;52.308;20.924;2022-12-18T14:31:17;76.07;;;24.43;;
56173;SDS011;42058;52.308;20.924;2022-12-18T14:33:49;78.25;;;24.30;;
56173;SDS011;42058;52.308;20.924;2022-12-18T14:36:17;72.12;;;23.42;;
56173;SDS011;42058;52.308;20.924;2022-12-18T14:38:50;75.67;;;23.77;;
56173;SDS011;42058;52.308;20.924;2022-12-18T16:48:30;70.03;;;26.57;;
56173;SDS011;42058;52.308;20.924;2022-12-18T16:53:35;64.00;;;23.25;;
56173;SDS011;42058;52.308;20.924;2022-12-18T16:56:04;64.12;;;23.32;;
56173;SDS011;42058;52.308;20.924;2022-12-18T16:58:34;67.58;;;24.23;;
56173;SDS011;42058;52.308;20.924;2022-12-18T17:01:01;63.60;;;24.25;;
56173;SDS011;42058;52.308;20.924;2022-12-18T17:03:34;70.35;;;24.27;;
56173;SDS011;42058;52.308;20.924;2022-12-18T17:06:02;63.98;;;23.05;;
56173;SDS011;42058;52.308;20.924;2022-12-18T17:08:29;58.35;;;21.52;;
56173;SDS011;42058;52.308;20.924;2022-12-18T17:10:56;61.63;;;23.50;;
56173;SDS011;42058;52.308;20.924;2022-12-18T17:13:31;57.38;;;22.30;;
56173;SDS011;42058;52.308;20.924;2022-12-18T17:16:07;56.77;;;23.12;;
56173;SDS011;42058;52.308;20.924;2022-12-18T17:18:32;55.08;;;21.42;;
56173;SDS011;42058;52.308;20.924;2022-12-18T17:20:59;62.25;;;23.05;;
56173;SDS011;42058;52.308;20.924;2022-12-18T17:23:27;60.52;;;22.73;;
56173;SDS011;42058;52.308;20.924;2022-12-18T17:25:56;61.15;;;22.30;;
56173;SDS011;42058;52.308;20.924;2022-12-18T17:28:24;60.85;;;22.45;;
56173;SDS011;42058;52.308;20.924;2022-12-18T17:30:52;64.90;;;23.92;;
56173;SDS011;42058;52.308;20.924;2022-12-18T17:33:20;60.58;;;24.05;;
56173;SDS011;42058;52.308;20.924;2022-12-18T17:35:47;63.65;;;23.75;;
56173;SDS011;42058;52.308;20.924;2022-12-18T17:38:13;77.20;;;24.92;;
56173;SDS011;42058;52.308;20.924;2022-12-18T17:40:40;64.35;;;24.32;;
56173;SDS011;42058;52.308;20.924;2022-12-18T17:43:07;66.17;;;23.47;;
56173;SDS011;42058;52.308;20.924;2022-12-18T17:45:38;72.32;;;23.27;;
56173;SDS011;42058;52.308;20.924;2022-12-18T17:48:05;67.78;;;23.70;;
56173;SDS011;42058;52.308;20.924;2022-12-18T17:50:33;57.60;;;24.20;;
56173;SDS011;42058;52.308;20.924;2022-12-18T17:52:59;65.10;;;23.75;;
56173;SDS011;42058;52.308;20.924;2022-12-18T17:55:26;62.00;;;23.50;;
56173;SDS011;42058;52.308;20.924;2022-12-18T17:57:53;61.85;;;22.60;;
56173;SDS011;42058;52.308;20.924;2022-12-18T18:00:20;60.73;;;24.12;;
56173;SDS011;42058;52.308;20.924;2022-12-18T18:02:46;63.38;;;21.95;;
56173;SDS011;42058;52.308;20.924;2022-12-18T18:05:12;56.28;;;21.75;;
56173;SDS011;42058;52.308;20.924;2022-12-18T18:07:40;57.38;;;20.85;;
56173;SDS011;42058;52.308;20.924;2022-12-18T18:10:07;55.35;;;20.12;;
56173;SDS011;42058;52.308;20.924;2022-12-18T18:12:35;59.03;;;21.27;;
56173;SDS011;42058;52.308;20.924;2022-12-18T18:15:20;57.75;;;20.45;;